Jerome, FL (34141)

7:14 PM EDT on September 04, 2015 (GMT -0400)
Chrysler Florida Evaluation Center | | Change Station
CLOSE
Current Station
Personal Weather Station
Location: Naples, FL
Elevation: 26 ft
Nearby Weather Stations

Elev 26 ft 26.17 °N, 81.50 °W | Updated 7 seconds ago

Partly Cloudy
Partly Cloudy
89.4 °F
Feels Like 98 °F
N
0.4
Wind Variable Wind from NNW
Gusts 1.5 mph

Today
High -- | Low -- °F
--% Chance of Precip.
Yesterday
High -- | Low -- °F
Precip. -- in
7:06 AM 7:41 PM
Waning Gibbous, 55% visible
Pressure 29.95 in
Visibility 10.0 miles
Clouds Clear
Heat Index 98 °F
Dew Point 74 °F
Humidity 60%
Rainfall 0.00 in
Snow Depth Not available.
UV 1 out of 12
Pollen 3.50 out of 12
Air Quality Not available.
Flu Activity Not available.
METAR KMKY 042255Z 31009KT 10SM CLR 31/24 A2995 RMK AO1
Pressure 29.95 in
Visibility 10.0 miles
Clouds Clear
Heat Index 98 °F
Dew Point 74 °F
Humidity 60%
Rainfall 0.00 in
Snow Depth Not available.
UV 1 out of 12
Pollen 3.50 out of 12
Air Quality Not available.
Flu Activity Not available.
METAR KMKY 042255Z 31009KT 10SM CLR 31/24 A2995 RMK AO1

10-Day Weather Forecast

×

Almanac

Astronomy

Sep. 04, 2015 Rise Set
Actual Time
Civil Twilight
Nautical Twilight
Astronomical Twilight
Moon
Length of Visible Light
Length of Day
Tomorrow will be .
, % of the Moon is Illuminated

Today's Extremes

State Highs State Lows

Community

WunderPhotos

Upload Photos

1,852,331 photos uploaded!

WunderBlogs® & News

Nearby

Air Quality

  Air Quality AQ Index Pollutant
Not available.

Snow Depth

Station Depth Elevation

Earthquake Activity

City Distance Mag. Time & Date
Minimum magnitude displayed is 2.5.

Coastal Water Temperatures

Place Temperature

Stations

Nearby Weather Stations

Station Location Temp. Windchill Dew Point Humidity Wind Precip. Elev Updated Type